Plumfield, Illinois
Current Conditions -  °F | °C
As of 2:46 PM on Friday 24 Oct 2014 (Local Time) from KMWA Reporting Station
Scattered Clouds Scattered Clouds  
Wind Chill: 68°   Ceiling: Unl
Heat Index: 68°   Visibility: 20mi
Dew Point: 55°   Wind: 7mph
Humidity: 64%   Direction: 260°W
Pressure: 30.07"   Gusts: NA
Location:  37.9074°N, 88.9501°W
Report Text: KMWA 241946Z 26006KT 20SM SCT028 SCT037 20/13 A3007
Loading
Personal Weather Stations






























Interactive Weather Map
Tropical Storm Tracking
New forecast layout! Learn more

10-Day Weather Forecast

Advertisements
Track Severe Weather on mobile